Alpena County Regional Airport Alpena US
ICAO: KAPN
IATA: APN
Category: Medium
Scheduled Services: Yes

Elevation: 690 ft
TransAlt. 18000 ft.

Airport Communications:
APP/DEP:128.425
ASOS:120.675
CTAF:121.35
GND:121.9
PTD:37.22
LANSING RDO:108.8
TWR:121.35
UNICOM:122.95

KAPN Zoom In..

If you have problems with the map follow the link
https://www.worldairports.se/pages/airport.php?
ICAO=KAPN

Runways:

(A) RW 01 length 9001 ft width 150 ft
ILS 109.70 / hdg 7

(B) RW 07 length 5028 ft width 100 ft
---- / hdg 67

(C) RW 19 length 9001 ft width 150 ft
---- / hdg 187

(D) RW 25 length 5028 ft width 100 ft
---- / hdg 247

Location; KAPN
Day. 17 / Time. 01.54 Zulu
* Altimeter: 29.89
* Temperature: 01° c. 33.8°f.
* Wind from: 280° Speed 06 kn.
Dewpoint: -02° c.
Visibility: 10 Statute Miles.
Clouds: Overcast 4400 ft.

KAPN 170154Z AUTO 28006KT 10SM OVC044 01/M02 A2989 RMK AO2 SLP131 T00111017


Wind From 280°
Speed 06 kn.

 
 
jpsmedia.com for Web Design worldairports.se 2018   terms of use